Stena Carrier — OWEE2 — position and weather

sailwx.info

Track history (hours):
 
Tides and Currents Weather Stations Pressure Air Temp Water Temp Dewpoint Dewpoint Depression Visibility Wind Speed Wind Dir Waves Ship Positions

Stena Carrier

Last reported at 2018-Feb-22 08:55 UTC. Time now 2018-Feb-22 13:09 UTC.
Position N 50°41' W 005°56'.

Length 183 m; draft 5.9 m.

Type: Ship (hazmat cat A). MMSI: 219020207.

Date/timePositionNaut miles runAvg speedWind from/ knotsBaromVisibWave heightAir tempDewpointWater temp
2018-Feb-22 08:55N 50°41' W 005°56'615.2
2018-Feb-22 08:30N 50°35' W 005°55'815.1
2018-Feb-22 08:00N 50°28' W 005°53'814.9
2018-Feb-22 07:26N 50°19' W 005°54'715.8
2018-Feb-22 07:00N 50°12' W 005°54'3513.6
2018-Feb-22 04:28N 49°55' W 005°08'918.9
2018-Feb-22 04:00N 49°55' W 004°54'1019.1
2018-Feb-22 03:29N 49°55' W 004°38'919.2
2018-Feb-22 03:00N 49°56' W 004°24'1419.2
2018-Feb-22 02:15N 49°56' W 004°02'619.1
2018-Feb-22 01:56N 49°57' W 003°53'818.8
2018-Feb-22 01:30N 49°57' W 003°40'918.4
2018-Feb-22 01:00N 49°58' W 003°26'917.9
2018-Feb-22 00:30N 49°58' W 003°12'917.4
2018-Feb-22 00:00N 49°59' W 002°58'816.8
2018-Feb-21 23:30N 50°00' W 002°46'2415.1
2018-Feb-21 21:54N 49°58' W 002°08'717.2
2018-Feb-21 21:31N 49°53' W 002°00'917.0
2018-Feb-21 21:00N 49°48' W 001°50'817.0
2018-Feb-21 20:30N 49°42' W 001°41'4 7.7
2018-Feb-21 20:00N 49°39' W 001°37'0 0.0
2018-Feb-21 19:30N 49°39' W 001°37'0 0.0
2018-Feb-21 18:58N 49°39' W 001°37'0 0.0
2018-Feb-21 18:28N 49°39' W 001°37'0 0.0
2018-Feb-21 17:58N 49°39' W 001°37'0 0.0
2018-Feb-21 17:25N 49°39' W 001°37'0 0.0
2018-Feb-21 16:58N 49°39' W 001°37'0 0.0
2018-Feb-21 16:28N 49°39' W 001°37'0 0.0
2018-Feb-21 15:58N 49°39' W 001°37'0 0.0
2018-Feb-21 15:28N 49°39' W 001°37'0 0.2
2018-Feb-21 15:00N 49°39' W 001°37'4 6.9
2018-Feb-21 14:29N 49°41' W 001°41'612.0
2018-Feb-21 14:01N 49°45' W 001°48'815.5
2018-Feb-21 13:30N 49°48' W 001°58'1017.5
2018-Feb-21 12:55N 49°53' W 002°13'918.3
2018-Feb-21 12:25N 49°52' W 002°27'918.9
2018-Feb-21 11:58N 49°51' W 002°40'918.7
2018-Feb-21 11:30N 49°49' W 002°53'1018.3
2018-Feb-21 10:58N 49°49' W 003°08'818.2
2018-Feb-21 10:30N 49°50' W 003°21'918.3
2018-Feb-21 10:00N 49°50' W 003°36'918.4
2018-Feb-21 09:30N 49°50' W 003°50'1018.7
2018-Feb-21 08:58N 49°51' W 004°06'918.9
2018-Feb-21 08:29N 49°52' W 004°19'1018.8
2018-Feb-21 07:57N 49°52' W 004°35'818.6
2018-Feb-21 07:30N 49°52' W 004°48'1020.2
2018-Feb-21 07:00N 49°53' W 005°04'1020.7
2018-Feb-21 06:30N 49°54' W 005°20'1020.2
2018-Feb-21 06:00N 49°54' W 005°35'1420.0
2018-Feb-21 05:19N 49°55' W 005°57'615.2
2018-Feb-21 04:56N 49°60' W 006°01'2319.9
2018-Feb-21 03:46N 50°23' W 006°01'1020.6
2018-Feb-21 03:16N 50°33' W 006°03'102 5.9
2018-Feb-20 09:58N 52°15' W 006°20'0 0.0
2018-Feb-20 08:58N 52°15' W 006°20'0 0.0
2018-Feb-20 08:28N 52°15' W 006°20'0 0.0
2018-Feb-20 07:58N 52°15' W 006°20'0 0.0
2018-Feb-20 07:28N 52°15' W 006°20'0 0.0
2018-Feb-20 06:58N 52°15' W 006°20'0 0.0
2018-Feb-20 06:28N 52°15' W 006°20'0 0.0
2018-Feb-20 05:58N 52°15' W 006°20'0 0.0
2018-Feb-20 05:28N 52°15' W 006°20'0 0.0
2018-Feb-20 04:58N 52°15' W 006°20'0 0.0
2018-Feb-20 04:28N 52°15' W 006°20'0 0.0
2018-Feb-20 03:58N 52°15' W 006°20'0 0.0
2018-Feb-20 03:28N 52°15' W 006°20'0 0.0
2018-Feb-20 02:58N 52°15' W 006°20'0 0.0
2018-Feb-20 02:28N 52°15' W 006°20'0 0.0
2018-Feb-20 01:58N 52°15' W 006°20'0 0.0
2018-Feb-20 01:28N 52°15' W 006°20'0 0.0
2018-Feb-20 00:58N 52°15' W 006°20'0 0.0
2018-Feb-20 00:28N 52°15' W 006°20'0 0.0
2018-Feb-19 23:58N 52°15' W 006°20'0 0.0
2018-Feb-19 23:28N 52°15' W 006°20'0 0.0
2018-Feb-19 22:58N 52°15' W 006°20'0 0.0
2018-Feb-19 22:28N 52°15' W 006°20'0 0.0
2018-Feb-19 21:58N 52°15' W 006°20'0 0.0
2018-Feb-19 21:25N 52°15' W 006°20'0 0.0
2018-Feb-19 20:58N 52°15' W 006°20'0 0.0
2018-Feb-19 20:28N 52°15' W 006°20'0 0.0
2018-Feb-19 19:58N 52°15' W 006°20'0 0.0
2018-Feb-19 19:28N 52°15' W 006°20'0 0.0
2018-Feb-19 18:52N 52°15' W 006°20'0 0.0
2018-Feb-19 18:28N 52°15' W 006°20'0 0.0
2018-Feb-19 17:58N 52°15' W 006°20'0 0.0
2018-Feb-19 17:28N 52°15' W 006°20'0 0.0
2018-Feb-19 16:58N 52°15' W 006°20'0 0.0
2018-Feb-19 16:28N 52°15' W 006°20'0 0.0
2018-Feb-19 15:58N 52°15' W 006°20'0 0.0
2018-Feb-19 15:28N 52°15' W 006°20'0 0.0
2018-Feb-19 14:53N 52°15' W 006°20'0 0.0
2018-Feb-19 14:30N 52°15' W 006°20'0 0.0
2018-Feb-19 14:00N 52°15' W 006°20'0 0.0
2018-Feb-19 13:30N 52°15' W 006°20'0 0.0
2018-Feb-19 13:00N 52°15' W 006°20'0 0.0
2018-Feb-19 12:30N 52°15' W 006°20'0 0.0
2018-Feb-19 11:57N 52°15' W 006°20'0 0.0
2018-Feb-19 11:30N 52°15' W 006°20'0 0.0
2018-Feb-19 11:00N 52°15' W 006°20'0 0.0
2018-Feb-19 10:27N 52°15' W 006°20'0 0.0
2018-Feb-19 09:57N 52°15' W 006°20'0 0.0
2018-Feb-19 09:30N 52°15' W 006°20'2 4.5
2018-Feb-19 09:00N 52°15' W 006°17'713.8
2018-Feb-19 08:30N 52°08' W 006°17'715.0
2018-Feb-19 08:00N 52°01' W 006°21'814.5
2018-Feb-19 07:26N 51°53' W 006°25'  
2018-Feb-16 18:41N 39°17' W 009°51'3 9.8
2018-Feb-16 18:26N 39°15' W 009°51'4 9.9
2018-Feb-16 18:01N 39°11' W 009°50'510.0
2018-Feb-16 17:31N 39°06' W 009°50'510.0
2018-Feb-16 17:00N 39°01' W 009°50'510.0
2018-Feb-16 16:30N 38°56' W 009°50'5 9.9
2018-Feb-16 16:00N 38°51' W 009°50'510.1
2018-Feb-16 15:30N 38°46' W 009°50'510.4
2018-Feb-16 15:00N 38°40' W 009°50'510.3
2018-Feb-16 14:30N 38°35' W 009°49'510.2
2018-Feb-16 14:00N 38°30' W 009°48'5 9.8
2018-Feb-16 13:31N 38°26' W 009°46'510.1
2018-Feb-16 13:01N 38°21' W 009°45'510.0
2018-Feb-16 12:30N 38°16' W 009°43'510.0
2018-Feb-16 12:00N 38°11' W 009°42'510.0
2018-Feb-16 11:30N 38°06' W 009°41'5 9.9
2018-Feb-16 11:00N 38°01' W 009°39'5 9.5
2018-Feb-16 10:31N 37°57' W 009°38'5 9.8
2018-Feb-16 10:00N 37°52' W 009°36'5 9.9
2018-Feb-16 09:30N 37°47' W 009°35'510.0
2018-Feb-16 09:00N 37°42' W 009°34'5 9.9
2018-Feb-16 08:30N 37°37' W 009°32'2910.8
2018-Feb-16 05:47N 37°09' W 009°23'1213.0
2018-Feb-16 04:50N 36°57' W 009°20'4011.8
2018-Feb-16 01:27N 36°40' W 008°34'1014.0
2018-Feb-16 00:46N 36°40' W 008°22'514.1
2018-Feb-16 00:26N 36°40' W 008°17'  
2018-Feb-13 05:50N 28°53' W 015°22'514.2
2018-Feb-13 05:30N 28°50' W 015°26'714.1
2018-Feb-13 05:00N 28°46' W 015°33'714.0
2018-Feb-13 04:31N 28°43' W 015°40'714.0
2018-Feb-13 04:00N 28°40' W 015°47'714.0
2018-Feb-13 03:30N 28°37' W 015°55'714.0
2018-Feb-13 03:00N 28°33' W 016°02'713.8
2018-Feb-13 02:30N 28°29' W 016°08'611.1
2018-Feb-13 02:00N 28°29' W 016°14'1 1.2
2018-Feb-13 01:30N 28°28' W 016°15'0 0.0
2018-Feb-13 00:59N 28°28' W 016°15'0 0.0
2018-Feb-13 00:29N 28°28' W 016°15'0 0.0
2018-Feb-12 23:59N 28°28' W 016°15'0 0.0
2018-Feb-12 23:29N 28°28' W 016°15'0 0.0
2018-Feb-12 22:59N 28°28' W 016°15'0 0.0
2018-Feb-12 22:29N 28°28' W 016°15'0 0.0
2018-Feb-12 21:59N 28°28' W 016°15'0 0.0
2018-Feb-12 21:29N 28°28' W 016°15'0 0.0
2018-Feb-12 20:59N 28°28' W 016°15'0 0.0
2018-Feb-12 20:29N 28°28' W 016°15'0 0.0
2018-Feb-12 19:59N 28°28' W 016°15'0 0.0
2018-Feb-12 19:29N 28°28' W 016°15'0 0.0
2018-Feb-12 18:59N 28°28' W 016°15'0 0.0
2018-Feb-12 18:29N 28°28' W 016°15'0 0.0
2018-Feb-12 17:59N 28°28' W 016°15'0 0.6
2018-Feb-12 17:30N 28°29' W 016°14'3 6.9
2018-Feb-12 17:01N 28°27' W 016°11'918.4
2018-Feb-12 16:30N 28°23' W 016°01'918.8
2018-Feb-12 16:00N 28°20' W 015°51'1019.3
2018-Feb-12 15:31N 28°17' W 015°41'1019.2
2018-Feb-12 15:01N 28°15' W 015°30'816.9
2018-Feb-12 14:31N 28°09' W 015°23'2 3.9
2018-Feb-12 14:00N 28°09' W 015°25'0 0.0
2018-Feb-12 13:30N 28°09' W 015°25'0 0.0
2018-Feb-12 13:00N 28°09' W 015°25'0 0.0
2018-Feb-12 12:30N 28°09' W 015°25'0 0.0
2018-Feb-12 12:00N 28°09' W 015°25'0 0.0
2018-Feb-12 11:30N 28°09' W 015°25'0 0.0
2018-Feb-12 11:00N 28°09' W 015°25'0 0.0
2018-Feb-12 10:30N 28°09' W 015°25'0 0.0
2018-Feb-12 10:00N 28°09' W 015°25'0 0.0
2018-Feb-12 09:30N 28°09' W 015°25'0 0.0
2018-Feb-12 09:00N 28°09' W 015°25'  
Track history (hours):
 
Tides and Currents Weather Stations Pressure Air Temp Water Temp Dewpoint Dewpoint Depression Visibility Wind Speed Wind Dir Waves Ship Positions

Stena Carrier

Last reported at 2018-Feb-22 08:55 UTC. Time now 2018-Feb-22 13:09 UTC.
Position N 50°41' W 005°56'.

Length 183 m; draft 5.9 m.

Type: Ship (hazmat cat A). MMSI: 219020207.

Date/timePositionNaut miles runAvg speedWind from/ knotsBaromVisibWave heightAir tempDewpointWater temp
2018-Feb-22 08:55N 50°41' W 005°56'615.2
2018-Feb-22 08:30N 50°35' W 005°55'815.1
2018-Feb-22 08:00N 50°28' W 005°53'814.9
2018-Feb-22 07:26N 50°19' W 005°54'715.8
2018-Feb-22 07:00N 50°12' W 005°54'3513.6
2018-Feb-22 04:28N 49°55' W 005°08'918.9
2018-Feb-22 04:00N 49°55' W 004°54'1019.1
2018-Feb-22 03:29N 49°55' W 004°38'919.2
2018-Feb-22 03:00N 49°56' W 004°24'1419.2
2018-Feb-22 02:15N 49°56' W 004°02'619.1
2018-Feb-22 01:56N 49°57' W 003°53'818.8
2018-Feb-22 01:30N 49°57' W 003°40'918.4
2018-Feb-22 01:00N 49°58' W 003°26'917.9
2018-Feb-22 00:30N 49°58' W 003°12'917.4
2018-Feb-22 00:00N 49°59' W 002°58'816.8
2018-Feb-21 23:30N 50°00' W 002°46'2415.1
2018-Feb-21 21:54N 49°58' W 002°08'717.2
2018-Feb-21 21:31N 49°53' W 002°00'917.0
2018-Feb-21 21:00N 49°48' W 001°50'817.0
2018-Feb-21 20:30N 49°42' W 001°41'4 7.7
2018-Feb-21 20:00N 49°39' W 001°37'0 0.0
2018-Feb-21 19:30N 49°39' W 001°37'0 0.0
2018-Feb-21 18:58N 49°39' W 001°37'0 0.0
2018-Feb-21 18:28N 49°39' W 001°37'0 0.0
2018-Feb-21 17:58N 49°39' W 001°37'0 0.0
2018-Feb-21 17:25N 49°39' W 001°37'0 0.0
2018-Feb-21 16:58N 49°39' W 001°37'0 0.0
2018-Feb-21 16:28N 49°39' W 001°37'0 0.0
2018-Feb-21 15:58N 49°39' W 001°37'0 0.0
2018-Feb-21 15:28N 49°39' W 001°37'0 0.2
2018-Feb-21 15:00N 49°39' W 001°37'4 6.9
2018-Feb-21 14:29N 49°41' W 001°41'612.0
2018-Feb-21 14:01N 49°45' W 001°48'815.5
2018-Feb-21 13:30N 49°48' W 001°58'1017.5
2018-Feb-21 12:55N 49°53' W 002°13'918.3
2018-Feb-21 12:25N 49°52' W 002°27'918.9
2018-Feb-21 11:58N 49°51' W 002°40'918.7
2018-Feb-21 11:30N 49°49' W 002°53'1018.3
2018-Feb-21 10:58N 49°49' W 003°08'818.2
2018-Feb-21 10:30N 49°50' W 003°21'918.3
2018-Feb-21 10:00N 49°50' W 003°36'918.4
2018-Feb-21 09:30N 49°50' W 003°50'1018.7
2018-Feb-21 08:58N 49°51' W 004°06'918.9
2018-Feb-21 08:29N 49°52' W 004°19'1018.8
2018-Feb-21 07:57N 49°52' W 004°35'818.6
2018-Feb-21 07:30N 49°52' W 004°48'1020.2
2018-Feb-21 07:00N 49°53' W 005°04'1020.7
2018-Feb-21 06:30N 49°54' W 005°20'1020.2
2018-Feb-21 06:00N 49°54' W 005°35'1420.0
2018-Feb-21 05:19N 49°55' W 005°57'615.2
2018-Feb-21 04:56N 49°60' W 006°01'2319.9
2018-Feb-21 03:46N 50°23' W 006°01'1020.6
2018-Feb-21 03:16N 50°33' W 006°03'102 5.9
2018-Feb-20 09:58N 52°15' W 006°20'0 0.0
2018-Feb-20 08:58N 52°15' W 006°20'0 0.0
2018-Feb-20 08:28N 52°15' W 006°20'0 0.0
2018-Feb-20 07:58N 52°15' W 006°20'0 0.0
2018-Feb-20 07:28N 52°15' W 006°20'0 0.0
2018-Feb-20 06:58N 52°15' W 006°20'0 0.0
2018-Feb-20 06:28N 52°15' W 006°20'0 0.0
2018-Feb-20 05:58N 52°15' W 006°20'0 0.0
2018-Feb-20 05:28N 52°15' W 006°20'0 0.0
2018-Feb-20 04:58N 52°15' W 006°20'0 0.0
2018-Feb-20 04:28N 52°15' W 006°20'0 0.0
2018-Feb-20 03:58N 52°15' W 006°20'0 0.0
2018-Feb-20 03:28N 52°15' W 006°20'0 0.0
2018-Feb-20 02:58N 52°15' W 006°20'0 0.0
2018-Feb-20 02:28N 52°15' W 006°20'0 0.0
2018-Feb-20 01:58N 52°15' W 006°20'0 0.0
2018-Feb-20 01:28N 52°15' W 006°20'0 0.0
2018-Feb-20 00:58N 52°15' W 006°20'0 0.0
2018-Feb-20 00:28N 52°15' W 006°20'0 0.0
2018-Feb-19 23:58N 52°15' W 006°20'0 0.0
2018-Feb-19 23:28N 52°15' W 006°20'0 0.0
2018-Feb-19 22:58N 52°15' W 006°20'0 0.0
2018-Feb-19 22:28N 52°15' W 006°20'0 0.0
2018-Feb-19 21:58N 52°15' W 006°20'0 0.0
2018-Feb-19 21:25N 52°15' W 006°20'0 0.0
2018-Feb-19 20:58N 52°15' W 006°20'0 0.0
2018-Feb-19 20:28N 52°15' W 006°20'0 0.0
2018-Feb-19 19:58N 52°15' W 006°20'0 0.0
2018-Feb-19 19:28N 52°15' W 006°20'0 0.0
2018-Feb-19 18:52N 52°15' W 006°20'0 0.0
2018-Feb-19 18:28N 52°15' W 006°20'0 0.0
2018-Feb-19 17:58N 52°15' W 006°20'0 0.0
2018-Feb-19 17:28N 52°15' W 006°20'0 0.0
2018-Feb-19 16:58N 52°15' W 006°20'0 0.0
2018-Feb-19 16:28N 52°15' W 006°20'0 0.0
2018-Feb-19 15:58N 52°15' W 006°20'0 0.0
2018-Feb-19 15:28N 52°15' W 006°20'0 0.0
2018-Feb-19 14:53N 52°15' W 006°20'0 0.0
2018-Feb-19 14:30N 52°15' W 006°20'0 0.0
2018-Feb-19 14:00N 52°15' W 006°20'0 0.0
2018-Feb-19 13:30N 52°15' W 006°20'0 0.0
2018-Feb-19 13:00N 52°15' W 006°20'0 0.0
2018-Feb-19 12:30N 52°15' W 006°20'0 0.0
2018-Feb-19 11:57N 52°15' W 006°20'0 0.0
2018-Feb-19 11:30N 52°15' W 006°20'0 0.0
2018-Feb-19 11:00N 52°15' W 006°20'0 0.0
2018-Feb-19 10:27N 52°15' W 006°20'0 0.0
2018-Feb-19 09:57N 52°15' W 006°20'0 0.0
2018-Feb-19 09:30N 52°15' W 006°20'2 4.5
2018-Feb-19 09:00N 52°15' W 006°17'713.8
2018-Feb-19 08:30N 52°08' W 006°17'715.0
2018-Feb-19 08:00N 52°01' W 006°21'814.5
2018-Feb-19 07:26N 51°53' W 006°25'  
2018-Feb-16 18:41N 39°17' W 009°51'3 9.8
2018-Feb-16 18:26N 39°15' W 009°51'4 9.9
2018-Feb-16 18:01N 39°11' W 009°50'510.0
2018-Feb-16 17:31N 39°06' W 009°50'510.0
2018-Feb-16 17:00N 39°01' W 009°50'510.0
2018-Feb-16 16:30N 38°56' W 009°50'5 9.9
2018-Feb-16 16:00N 38°51' W 009°50'510.1
2018-Feb-16 15:30N 38°46' W 009°50'510.4
2018-Feb-16 15:00N 38°40' W 009°50'510.3
2018-Feb-16 14:30N 38°35' W 009°49'510.2
2018-Feb-16 14:00N 38°30' W 009°48'5 9.8
2018-Feb-16 13:31N 38°26' W 009°46'510.1
2018-Feb-16 13:01N 38°21' W 009°45'510.0
2018-Feb-16 12:30N 38°16' W 009°43'510.0
2018-Feb-16 12:00N 38°11' W 009°42'510.0
2018-Feb-16 11:30N 38°06' W 009°41'5 9.9
2018-Feb-16 11:00N 38°01' W 009°39'5 9.5
2018-Feb-16 10:31N 37°57' W 009°38'5 9.8
2018-Feb-16 10:00N 37°52' W 009°36'5 9.9
2018-Feb-16 09:30N 37°47' W 009°35'510.0
2018-Feb-16 09:00N 37°42' W 009°34'5 9.9
2018-Feb-16 08:30N 37°37' W 009°32'2910.8
2018-Feb-16 05:47N 37°09' W 009°23'1213.0
2018-Feb-16 04:50N 36°57' W 009°20'4011.8
2018-Feb-16 01:27N 36°40' W 008°34'1014.0
2018-Feb-16 00:46N 36°40' W 008°22'514.1
2018-Feb-16 00:26N 36°40' W 008°17'  
2018-Feb-13 05:50N 28°53' W 015°22'514.2
2018-Feb-13 05:30N 28°50' W 015°26'714.1
2018-Feb-13 05:00N 28°46' W 015°33'714.0
2018-Feb-13 04:31N 28°43' W 015°40'714.0
2018-Feb-13 04:00N 28°40' W 015°47'714.0
2018-Feb-13 03:30N 28°37' W 015°55'714.0
2018-Feb-13 03:00N 28°33' W 016°02'713.8
2018-Feb-13 02:30N 28°29' W 016°08'611.1
2018-Feb-13 02:00N 28°29' W 016°14'1 1.2
2018-Feb-13 01:30N 28°28' W 016°15'0 0.0
2018-Feb-13 00:59N 28°28' W 016°15'0 0.0
2018-Feb-13 00:29N 28°28' W 016°15'0 0.0
2018-Feb-12 23:59N 28°28' W 016°15'0 0.0
2018-Feb-12 23:29N 28°28' W 016°15'0 0.0
2018-Feb-12 22:59N 28°28' W 016°15'0 0.0
2018-Feb-12 22:29N 28°28' W 016°15'0 0.0
2018-Feb-12 21:59N 28°28' W 016°15'0 0.0
2018-Feb-12 21:29N 28°28' W 016°15'0 0.0
2018-Feb-12 20:59N 28°28' W 016°15'0 0.0
2018-Feb-12 20:29N 28°28' W 016°15'0 0.0
2018-Feb-12 19:59N 28°28' W 016°15'0 0.0
2018-Feb-12 19:29N 28°28' W 016°15'0 0.0
2018-Feb-12 18:59N 28°28' W 016°15'0 0.0
2018-Feb-12 18:29N 28°28' W 016°15'0 0.0
2018-Feb-12 17:59N 28°28' W 016°15'0 0.6
2018-Feb-12 17:30N 28°29' W 016°14'3 6.9
2018-Feb-12 17:01N 28°27' W 016°11'918.4
2018-Feb-12 16:30N 28°23' W 016°01'918.8
2018-Feb-12 16:00N 28°20' W 015°51'1019.3
2018-Feb-12 15:31N 28°17' W 015°41'1019.2
2018-Feb-12 15:01N 28°15' W 015°30'816.9
2018-Feb-12 14:31N 28°09' W 015°23'2 3.9
2018-Feb-12 14:00N 28°09' W 015°25'0 0.0
2018-Feb-12 13:30N 28°09' W 015°25'0 0.0
2018-Feb-12 13:00N 28°09' W 015°25'0 0.0
2018-Feb-12 12:30N 28°09' W 015°25'0 0.0
2018-Feb-12 12:00N 28°09' W 015°25'0 0.0
2018-Feb-12 11:30N 28°09' W 015°25'0 0.0
2018-Feb-12 11:00N 28°09' W 015°25'0 0.0
2018-Feb-12 10:30N 28°09' W 015°25'0 0.0
2018-Feb-12 10:00N 28°09' W 015°25'0 0.0
2018-Feb-12 09:30N 28°09' W 015°25'0 0.0
2018-Feb-12 09:00N 28°09' W 015°25'  

Dump ship's entire track history